Glentana, MT

2:01 AM MST on December 21, 2014 (GMT -0700)
farm | Change Station
CLOSE
Current Station
Personal Weather Station
Location: Montana, MT
Elevation: 2936 ft
Nearby Weather Stations
Active Advisory: Freezing Rain Advisory

Elev 2936 ft 48.56 °N, 106.05 °W | Updated 2 seconds ago

Clear
Clear
24.3 °F
Feels Like 18 °F
N
4.9
Wind Variable Wind from ESE
Gusts 5.0 mph

Today
High -- | Low -- °F
--% Chance of Precip.
Yesterday
High -- | Low -- °F
Precip. -- in
7:55 AM 4:10 PM
Waning Crescent, 1% visible
Pressure 29.60 in
Visibility 10.0 miles
Clouds Clear
Windchill 18 °F
Dew Point 21 °F
Humidity 83%
Rainfall 0.00 in
Snow Depth Not available.
UV 0 out of 12
Pollen .10 out of 12
Air Quality Not available.
Flu Activity Not available.
METAR KGGW 210853Z AUTO 10011KT 10SM CLR M05/M08 A2953 RMK AO2 SLP023 T10501078 58034

More Conditions Fewer Conditions

Pressure 29.60 in
Visibility 10.0 miles
Clouds Clear
Windchill 18 °F
Dew Point 21 °F
Humidity 83%
Rainfall 0.00 in
Snow Depth Not available.
UV 0 out of 12
Pollen .10 out of 12
Air Quality Not available.
Flu Activity Not available.
METAR KGGW 210853Z AUTO 10011KT 10SM CLR M05/M08 A2953 RMK AO2 SLP023 T10501078 58034

More Conditions Fewer Conditions

10-Day Weather Forecast

Almanac

Astronomy

Dec. 21, 2014 Rise Set
Actual Time
Civil Twilight
Nautical Twilight
Astronomical Twilight
Moon
Length of Visible Light
Length of Day
Tomorrow will be .
, % of the Moon is Illuminated

Today's Extremes

State Highs State Lows

Community

WunderPhotos

Upload Photos

1,779,364 photos uploaded!

WunderBlogs® & News

Nearby

Air Quality

  Air Quality AQ Index Pollutant
Not available.

Snow Depth

Station Depth Elevation

Earthquake Activity

City Distance Mag. Time & Date
Minimum magnitude displayed is 2.5.

Coastal Water Temperatures

Place Temperature

Nearby Weather Stations